Eatonville, Florida
Current Conditions -  °F | °C
As of 10:53 PM on Sunday 21 Dec 2014 (Local Time) from KORL Reporting Station
Overcast Overcast  
Wind Chill: 68°   Ceiling: 4200
Heat Index: 68°   Visibility: 7mi
Dew Point: 67°   Wind: 3mph
Humidity: 96%   Direction: 360°N
Pressure: 30.05"   Gusts: NA
Location:  28.6318°N, 81.3625°W
Report Text: KORL 220353Z AUTO 36003KT 7SM FEW004 BKN042 OVC080 20/19 A3005 RMK AO2 SLP179 T02000194
Loading
Personal Weather Stations






























Interactive Weather Map New forecast layout! Learn more

10-Day Weather Forecast

Advertisements
Track Severe Weather on mobile